sensor_id;sensor_type;location;lat;lon;timestamp;P1;durP1;ratioP1;P2;durP2;ratioP2
28311;SDS011;15572;48.810;9.148;2022-10-13T00:02:54;25.00;;;13.97;;
28311;SDS011;15572;48.810;9.148;2022-10-13T00:07:50;23.10;;;13.50;;
28311;SDS011;15572;48.810;9.148;2022-10-13T00:12:47;20.97;;;14.00;;
28311;SDS011;15572;48.810;9.148;2022-10-13T00:17:45;24.57;;;14.67;;
28311;SDS011;15572;48.810;9.148;2022-10-13T00:22:42;26.77;;;15.43;;
28311;SDS011;15572;48.810;9.148;2022-10-13T00:27:38;29.43;;;14.83;;
28311;SDS011;15572;48.810;9.148;2022-10-13T00:32:35;27.90;;;16.63;;
28311;SDS011;15572;48.810;9.148;2022-10-13T00:37:32;29.67;;;18.37;;
28311;SDS011;15572;48.810;9.148;2022-10-13T00:42:29;30.03;;;16.83;;
28311;SDS011;15572;48.810;9.148;2022-10-13T00:47:25;30.43;;;16.80;;
28311;SDS011;15572;48.810;9.148;2022-10-13T00:52:25;29.00;;;16.27;;
28311;SDS011;15572;48.810;9.148;2022-10-13T00:57:24;24.83;;;14.93;;
28311;SDS011;15572;48.810;9.148;2022-10-13T01:02:21;25.10;;;15.77;;
28311;SDS011;15572;48.810;9.148;2022-10-13T01:07:22;28.10;;;15.83;;
28311;SDS011;15572;48.810;9.148;2022-10-13T01:12:27;28.90;;;15.77;;
28311;SDS011;15572;48.810;9.148;2022-10-13T01:17:37;23.40;;;14.87;;
28311;SDS011;15572;48.810;9.148;2022-10-13T01:22:46;24.63;;;14.97;;
28311;SDS011;15572;48.810;9.148;2022-10-13T01:28:10;27.00;;;15.87;;
28311;SDS011;15572;48.810;9.148;2022-10-13T01:33:21;23.90;;;14.20;;
28311;SDS011;15572;48.810;9.148;2022-10-13T01:38:25;27.53;;;15.30;;
28311;SDS011;15572;48.810;9.148;2022-10-13T01:43:29;25.90;;;15.70;;
28311;SDS011;15572;48.810;9.148;2022-10-13T01:48:32;26.57;;;16.43;;
28311;SDS011;15572;48.810;9.148;2022-10-13T01:53:32;32.60;;;16.43;;
28311;SDS011;15572;48.810;9.148;2022-10-13T01:58:31;24.70;;;14.33;;
28311;SDS011;15572;48.810;9.148;2022-10-13T02:03:34;28.90;;;15.33;;
28311;SDS011;15572;48.810;9.148;2022-10-13T02:08:39;23.63;;;13.73;;
28311;SDS011;15572;48.810;9.148;2022-10-13T02:13:42;26.67;;;14.23;;
28311;SDS011;15572;48.810;9.148;2022-10-13T02:18:43;29.03;;;15.83;;
28311;SDS011;15572;48.810;9.148;2022-10-13T02:23:40;24.73;;;13.70;;
28311;SDS011;15572;48.810;9.148;2022-10-13T02:28:37;25.03;;;14.77;;
28311;SDS011;15572;48.810;9.148;2022-10-13T02:33:34;24.70;;;14.40;;
28311;SDS011;15572;48.810;9.148;2022-10-13T02:38:32;28.70;;;15.17;;
28311;SDS011;15572;48.810;9.148;2022-10-13T02:43:28;27.37;;;16.53;;
28311;SDS011;15572;48.810;9.148;2022-10-13T02:48:25;28.90;;;16.30;;
28311;SDS011;15572;48.810;9.148;2022-10-13T02:53:21;26.07;;;15.33;;
28311;SDS011;15572;48.810;9.148;2022-10-13T02:58:19;28.03;;;15.90;;
28311;SDS011;15572;48.810;9.148;2022-10-13T03:03:16;32.13;;;16.30;;
28311;SDS011;15572;48.810;9.148;2022-10-13T03:08:12;25.03;;;14.97;;
28311;SDS011;15572;48.810;9.148;2022-10-13T03:13:09;25.80;;;15.53;;
28311;SDS011;15572;48.810;9.148;2022-10-13T03:18:07;32.23;;;16.13;;
28311;SDS011;15572;48.810;9.148;2022-10-13T03:23:03;24.30;;;15.40;;
28311;SDS011;15572;48.810;9.148;2022-10-13T03:28:01;30.00;;;17.10;;
28311;SDS011;15572;48.810;9.148;2022-10-13T03:32:57;33.07;;;16.93;;
28311;SDS011;15572;48.810;9.148;2022-10-13T03:37:55;31.00;;;17.37;;
28311;SDS011;15572;48.810;9.148;2022-10-13T03:42:52;28.40;;;16.13;;
28311;SDS011;15572;48.810;9.148;2022-10-13T03:47:49;26.53;;;16.63;;
28311;SDS011;15572;48.810;9.148;2022-10-13T03:52:46;34.73;;;17.30;;
28311;SDS011;15572;48.810;9.148;2022-10-13T03:57:43;30.07;;;16.73;;
28311;SDS011;15572;48.810;9.148;2022-10-13T04:02:40;27.87;;;17.00;;
28311;SDS011;15572;48.810;9.148;2022-10-13T04:07:36;27.67;;;16.97;;
28311;SDS011;15572;48.810;9.148;2022-10-13T04:12:33;35.23;;;18.73;;
28311;SDS011;15572;48.810;9.148;2022-10-13T04:17:31;30.93;;;17.80;;
28311;SDS011;15572;48.810;9.148;2022-10-13T04:22:27;30.70;;;18.43;;
28311;SDS011;15572;48.810;9.148;2022-10-13T04:32:24;34.23;;;18.77;;
28311;SDS011;15572;48.810;9.148;2022-10-13T04:37:22;33.10;;;17.73;;
28311;SDS011;15572;48.810;9.148;2022-10-13T04:42:19;30.93;;;20.13;;
28311;SDS011;15572;48.810;9.148;2022-10-13T04:47:15;32.37;;;21.97;;
28311;SDS011;15572;48.810;9.148;2022-10-13T04:52:12;31.40;;;20.23;;
28311;SDS011;15572;48.810;9.148;2022-10-13T04:57:10;36.33;;;20.60;;
28311;SDS011;15572;48.810;9.148;2022-10-13T05:02:06;34.07;;;18.87;;
28311;SDS011;15572;48.810;9.148;2022-10-13T05:07:03;30.33;;;18.17;;
28311;SDS011;15572;48.810;9.148;2022-10-13T05:11:59;37.50;;;19.60;;
28311;SDS011;15572;48.810;9.148;2022-10-13T05:16:58;36.90;;;20.00;;
28311;SDS011;15572;48.810;9.148;2022-10-13T05:21:54;33.83;;;18.67;;
28311;SDS011;15572;48.810;9.148;2022-10-13T05:26:51;30.77;;;17.97;;
28311;SDS011;15572;48.810;9.148;2022-10-13T05:31:47;38.50;;;18.47;;
28311;SDS011;15572;48.810;9.148;2022-10-13T05:36:45;29.03;;;17.43;;
28311;SDS011;15572;48.810;9.148;2022-10-13T05:41:41;28.33;;;17.90;;
28311;SDS011;15572;48.810;9.148;2022-10-13T05:46:38;29.07;;;17.40;;
28311;SDS011;15572;48.810;9.148;2022-10-13T05:51:35;32.00;;;17.80;;
28311;SDS011;15572;48.810;9.148;2022-10-13T05:56:37;36.33;;;17.57;;
28311;SDS011;15572;48.810;9.148;2022-10-13T06:01:38;34.23;;;19.13;;
28311;SDS011;15572;48.810;9.148;2022-10-13T06:06:36;30.23;;;18.03;;
28311;SDS011;15572;48.810;9.148;2022-10-13T06:11:34;28.17;;;17.33;;
28311;SDS011;15572;48.810;9.148;2022-10-13T06:16:31;30.40;;;17.47;;
28311;SDS011;15572;48.810;9.148;2022-10-13T06:21:29;31.47;;;18.97;;
28311;SDS011;15572;48.810;9.148;2022-10-13T06:26:26;34.03;;;18.73;;
28311;SDS011;15572;48.810;9.148;2022-10-13T06:31:22;33.10;;;19.00;;
28311;SDS011;15572;48.810;9.148;2022-10-13T06:36:20;37.60;;;20.20;;
28311;SDS011;15572;48.810;9.148;2022-10-13T06:41:17;33.17;;;19.73;;
28311;SDS011;15572;48.810;9.148;2022-10-13T06:46:13;38.47;;;19.47;;
28311;SDS011;15572;48.810;9.148;2022-10-13T06:51:10;36.63;;;19.37;;
28311;SDS011;15572;48.810;9.148;2022-10-13T06:56:08;44.10;;;19.03;;
28311;SDS011;15572;48.810;9.148;2022-10-13T07:01:05;34.90;;;19.37;;
28311;SDS011;15572;48.810;9.148;2022-10-13T07:06:03;32.50;;;18.53;;
28311;SDS011;15572;48.810;9.148;2022-10-13T07:11:05;32.60;;;20.00;;
28311;SDS011;15572;48.810;9.148;2022-10-13T07:16:04;37.27;;;20.00;;
28311;SDS011;15572;48.810;9.148;2022-10-13T07:21:02;34.53;;;18.93;;
28311;SDS011;15572;48.810;9.148;2022-10-13T07:25:59;33.23;;;19.37;;
28311;SDS011;15572;48.810;9.148;2022-10-13T07:30:55;31.07;;;19.40;;
28311;SDS011;15572;48.810;9.148;2022-10-13T07:35:53;34.60;;;19.70;;
28311;SDS011;15572;48.810;9.148;2022-10-13T07:40:53;35.47;;;18.80;;
28311;SDS011;15572;48.810;9.148;2022-10-13T07:45:50;25.67;;;16.27;;
28311;SDS011;15572;48.810;9.148;2022-10-13T07:50:46;26.77;;;16.20;;
28311;SDS011;15572;48.810;9.148;2022-10-13T07:55:44;26.13;;;15.47;;
28311;SDS011;15572;48.810;9.148;2022-10-13T08:00:41;28.10;;;15.80;;
28311;SDS011;15572;48.810;9.148;2022-10-13T08:05:37;21.53;;;13.60;;
28311;SDS011;15572;48.810;9.148;2022-10-13T08:10:34;25.27;;;14.20;;
28311;SDS011;15572;48.810;9.148;2022-10-13T08:15:32;24.50;;;12.53;;
28311;SDS011;15572;48.810;9.148;2022-10-13T08:20:28;23.40;;;14.33;;
28311;SDS011;15572;48.810;9.148;2022-10-13T08:25:25;27.27;;;12.57;;
28311;SDS011;15572;48.810;9.148;2022-10-13T08:30:22;18.87;;;11.83;;
28311;SDS011;15572;48.810;9.148;2022-10-13T08:35:20;24.20;;;12.60;;
28311;SDS011;15572;48.810;9.148;2022-10-13T08:40:18;20.93;;;12.30;;
28311;SDS011;15572;48.810;9.148;2022-10-13T08:45:18;26.40;;;13.73;;
28311;SDS011;15572;48.810;9.148;2022-10-13T08:50:17;19.97;;;11.30;;
28311;SDS011;15572;48.810;9.148;2022-10-13T08:55:20;17.67;;;10.67;;
28311;SDS011;15572;48.810;9.148;2022-10-13T09:00:20;19.70;;;10.27;;
28311;SDS011;15572;48.810;9.148;2022-10-13T09:05:18;16.83;;;9.50;;
28311;SDS011;15572;48.810;9.148;2022-10-13T09:10:27;18.27;;;9.90;;
28311;SDS011;15572;48.810;9.148;2022-10-13T09:15:24;13.93;;;8.27;;
28311;SDS011;15572;48.810;9.148;2022-10-13T09:20:21;14.07;;;8.67;;
28311;SDS011;15572;48.810;9.148;2022-10-13T09:25:22;14.67;;;8.47;;
28311;SDS011;15572;48.810;9.148;2022-10-13T09:30:23;11.83;;;7.83;;
28311;SDS011;15572;48.810;9.148;2022-10-13T09:35:25;12.70;;;7.60;;
28311;SDS011;15572;48.810;9.148;2022-10-13T09:40:24;12.33;;;7.80;;
28311;SDS011;15572;48.810;9.148;2022-10-13T09:45:24;17.67;;;7.60;;
28311;SDS011;15572;48.810;9.148;2022-10-13T09:50:24;13.57;;;7.70;;
28311;SDS011;15572;48.810;9.148;2022-10-13T09:55:28;14.00;;;7.03;;
28311;SDS011;15572;48.810;9.148;2022-10-13T10:00:27;11.50;;;6.63;;
28311;SDS011;15572;48.810;9.148;2022-10-13T10:05:24;14.17;;;7.83;;
28311;SDS011;15572;48.810;9.148;2022-10-13T10:10:28;13.53;;;7.70;;
28311;SDS011;15572;48.810;9.148;2022-10-13T10:15:29;13.73;;;7.27;;
28311;SDS011;15572;48.810;9.148;2022-10-13T10:20:49;12.30;;;7.27;;
28311;SDS011;15572;48.810;9.148;2022-10-13T10:25:56;12.43;;;7.07;;
28311;SDS011;15572;48.810;9.148;2022-10-13T10:30:57;14.27;;;7.57;;
28311;SDS011;15572;48.810;9.148;2022-10-13T10:36:02;14.73;;;7.20;;
28311;SDS011;15572;48.810;9.148;2022-10-13T10:41:15;16.70;;;7.13;;
28311;SDS011;15572;48.810;9.148;2022-10-13T10:46:22;14.30;;;6.70;;
28311;SDS011;15572;48.810;9.148;2022-10-13T10:51:27;12.07;;;6.60;;
28311;SDS011;15572;48.810;9.148;2022-10-13T10:56:29;10.13;;;6.43;;
28311;SDS011;15572;48.810;9.148;2022-10-13T11:01:30;13.43;;;6.10;;
28311;SDS011;15572;48.810;9.148;2022-10-13T11:06:33;11.67;;;6.47;;
28311;SDS011;15572;48.810;9.148;2022-10-13T11:11:33;14.20;;;6.30;;
28311;SDS011;15572;48.810;9.148;2022-10-13T11:16:32;8.83;;;6.10;;
28311;SDS011;15572;48.810;9.148;2022-10-13T11:27:21;14.07;;;6.20;;
28311;SDS011;15572;48.810;9.148;2022-10-13T11:38:00;9.17;;;6.30;;
28311;SDS011;15572;48.810;9.148;2022-10-13T11:43:20;10.50;;;6.07;;
28311;SDS011;15572;48.810;9.148;2022-10-13T11:54:11;11.17;;;6.03;;
28311;SDS011;15572;48.810;9.148;2022-10-13T11:59:22;14.17;;;6.03;;
28311;SDS011;15572;48.810;9.148;2022-10-13T12:04:22;7.90;;;5.13;;
28311;SDS011;15572;48.810;9.148;2022-10-13T12:09:21;11.33;;;5.07;;
28311;SDS011;15572;48.810;9.148;2022-10-13T12:14:19;9.27;;;5.23;;
28311;SDS011;15572;48.810;9.148;2022-10-13T12:19:22;9.83;;;5.07;;
28311;SDS011;15572;48.810;9.148;2022-10-13T12:24:20;10.43;;;5.50;;
28311;SDS011;15572;48.810;9.148;2022-10-13T12:29:22;10.55;;;5.60;;
28311;SDS011;15572;48.810;9.148;2022-10-13T12:34:22;9.25;;;5.68;;
28311;SDS011;15572;48.810;9.148;2022-10-13T12:39:21;12.47;;;5.30;;
28311;SDS011;15572;48.810;9.148;2022-10-13T12:44:22;7.43;;;5.40;;
28311;SDS011;15572;48.810;9.148;2022-10-13T12:49:21;10.40;;;5.00;;
28311;SDS011;15572;48.810;9.148;2022-10-13T12:54:24;9.60;;;5.05;;
28311;SDS011;15572;48.810;9.148;2022-10-13T12:59:26;8.75;;;4.30;;
28311;SDS011;15572;48.810;9.148;2022-10-13T13:04:28;7.20;;;4.80;;
28311;SDS011;15572;48.810;9.148;2022-10-13T13:09:36;11.85;;;7.78;;
28311;SDS011;15572;48.810;9.148;2022-10-13T13:14:36;10.85;;;5.20;;
28311;SDS011;15572;48.810;9.148;2022-10-13T13:19:34;8.23;;;4.63;;
28311;SDS011;15572;48.810;9.148;2022-10-13T13:24:32;11.80;;;4.75;;
28311;SDS011;15572;48.810;9.148;2022-10-13T13:29:28;8.75;;;4.47;;
28311;SDS011;15572;48.810;9.148;2022-10-13T13:34:26;6.75;;;4.20;;
28311;SDS011;15572;48.810;9.148;2022-10-13T13:39:23;7.55;;;4.20;;
28311;SDS011;15572;48.810;9.148;2022-10-13T13:44:19;9.93;;;4.93;;
28311;SDS011;15572;48.810;9.148;2022-10-13T13:49:16;9.50;;;4.60;;
28311;SDS011;15572;48.810;9.148;2022-10-13T13:54:13;8.70;;;4.32;;
28311;SDS011;15572;48.810;9.148;2022-10-13T13:59:10;6.45;;;4.45;;
28311;SDS011;15572;48.810;9.148;2022-10-13T14:04:06;8.95;;;4.47;;
28311;SDS011;15572;48.810;9.148;2022-10-13T14:09:03;8.73;;;4.70;;
28311;SDS011;15572;48.810;9.148;2022-10-13T14:14:01;8.68;;;4.72;;
28311;SDS011;15572;48.810;9.148;2022-10-13T14:18:58;12.40;;;4.85;;
28311;SDS011;15572;48.810;9.148;2022-10-13T14:23:54;6.97;;;4.15;;
28311;SDS011;15572;48.810;9.148;2022-10-13T14:28:51;9.53;;;4.70;;
28311;SDS011;15572;48.810;9.148;2022-10-13T14:33:49;15.93;;;5.40;;
28311;SDS011;15572;48.810;9.148;2022-10-13T14:38:45;15.95;;;6.40;;
28311;SDS011;15572;48.810;9.148;2022-10-13T14:43:42;13.30;;;6.13;;
28311;SDS011;15572;48.810;9.148;2022-10-13T14:48:39;11.73;;;6.07;;
28311;SDS011;15572;48.810;9.148;2022-10-13T14:53:38;10.35;;;5.78;;
28311;SDS011;15572;48.810;9.148;2022-10-13T14:58:35;10.53;;;6.03;;
28311;SDS011;15572;48.810;9.148;2022-10-13T15:03:32;10.73;;;6.47;;
28311;SDS011;15572;48.810;9.148;2022-10-13T15:08:28;13.83;;;7.93;;
28311;SDS011;15572;48.810;9.148;2022-10-13T15:13:26;15.40;;;8.20;;
28311;SDS011;15572;48.810;9.148;2022-10-13T15:18:23;13.30;;;8.73;;
28311;SDS011;15572;48.810;9.148;2022-10-13T15:23:19;18.77;;;9.27;;
28311;SDS011;15572;48.810;9.148;2022-10-13T15:28:16;14.27;;;9.43;;
28311;SDS011;15572;48.810;9.148;2022-10-13T15:33:14;16.23;;;8.80;;
28311;SDS011;15572;48.810;9.148;2022-10-13T15:38:11;17.10;;;8.87;;
28311;SDS011;15572;48.810;9.148;2022-10-13T15:43:08;15.30;;;9.10;;
28311;SDS011;15572;48.810;9.148;2022-10-13T15:48:05;19.83;;;9.57;;
28311;SDS011;15572;48.810;9.148;2022-10-13T15:53:05;14.87;;;9.30;;
28311;SDS011;15572;48.810;9.148;2022-10-13T15:58:02;16.80;;;9.60;;
28311;SDS011;15572;48.810;9.148;2022-10-13T16:02:58;15.63;;;9.57;;
28311;SDS011;15572;48.810;9.148;2022-10-13T16:07:55;19.83;;;9.90;;
28311;SDS011;15572;48.810;9.148;2022-10-13T16:12:53;20.30;;;9.73;;
28311;SDS011;15572;48.810;9.148;2022-10-13T16:17:50;16.80;;;9.53;;
28311;SDS011;15572;48.810;9.148;2022-10-13T16:22:46;17.33;;;11.23;;
28311;SDS011;15572;48.810;9.148;2022-10-13T16:27:43;18.17;;;10.60;;
28311;SDS011;15572;48.810;9.148;2022-10-13T16:32:41;18.17;;;10.07;;
28311;SDS011;15572;48.810;9.148;2022-10-13T16:37:37;18.17;;;10.77;;
28311;SDS011;15572;48.810;9.148;2022-10-13T16:42:34;17.87;;;10.97;;
28311;SDS011;15572;48.810;9.148;2022-10-13T16:47:30;17.87;;;11.67;;
28311;SDS011;15572;48.810;9.148;2022-10-13T16:52:28;20.50;;;12.97;;
28311;SDS011;15572;48.810;9.148;2022-10-13T16:57:25;26.43;;;15.80;;
28311;SDS011;15572;48.810;9.148;2022-10-13T17:02:23;23.90;;;15.30;;
28311;SDS011;15572;48.810;9.148;2022-10-13T17:07:20;22.83;;;15.77;;
28311;SDS011;15572;48.810;9.148;2022-10-13T17:12:18;24.20;;;16.47;;
28311;SDS011;15572;48.810;9.148;2022-10-13T17:17:14;25.43;;;16.83;;
28311;SDS011;15572;48.810;9.148;2022-10-13T17:22:11;28.33;;;18.10;;
28311;SDS011;15572;48.810;9.148;2022-10-13T17:27:07;22.10;;;14.50;;
28311;SDS011;15572;48.810;9.148;2022-10-13T17:32:05;25.63;;;15.10;;
28311;SDS011;15572;48.810;9.148;2022-10-13T17:37:02;20.90;;;13.53;;
28311;SDS011;15572;48.810;9.148;2022-10-13T17:41:58;20.93;;;13.37;;
28311;SDS011;15572;48.810;9.148;2022-10-13T17:46:55;23.10;;;13.33;;
28311;SDS011;15572;48.810;9.148;2022-10-13T17:51:53;23.20;;;14.57;;
28311;SDS011;15572;48.810;9.148;2022-10-13T17:56:49;24.27;;;13.77;;
28311;SDS011;15572;48.810;9.148;2022-10-13T18:01:46;24.07;;;14.97;;
28311;SDS011;15572;48.810;9.148;2022-10-13T18:06:43;26.50;;;14.87;;
28311;SDS011;15572;48.810;9.148;2022-10-13T18:11:41;22.47;;;14.60;;
28311;SDS011;15572;48.810;9.148;2022-10-13T18:16:39;25.43;;;14.37;;
28311;SDS011;15572;48.810;9.148;2022-10-13T18:21:37;23.77;;;14.70;;
28311;SDS011;15572;48.810;9.148;2022-10-13T18:26:33;27.13;;;16.33;;
28311;SDS011;15572;48.810;9.148;2022-10-13T18:31:32;26.70;;;17.33;;
28311;SDS011;15572;48.810;9.148;2022-10-13T18:36:31;32.33;;;16.70;;
28311;SDS011;15572;48.810;9.148;2022-10-13T18:41:29;29.50;;;15.90;;
28311;SDS011;15572;48.810;9.148;2022-10-13T18:46:27;25.00;;;16.30;;
28311;SDS011;15572;48.810;9.148;2022-10-13T18:51:26;24.67;;;15.33;;
28311;SDS011;15572;48.810;9.148;2022-10-13T18:56:23;23.83;;;15.43;;
28311;SDS011;15572;48.810;9.148;2022-10-13T19:01:22;27.67;;;15.53;;
28311;SDS011;15572;48.810;9.148;2022-10-13T19:06:21;30.03;;;16.93;;
28311;SDS011;15572;48.810;9.148;2022-10-13T19:11:22;30.33;;;17.87;;
28311;SDS011;15572;48.810;9.148;2022-10-13T19:16:19;27.23;;;17.83;;
28311;SDS011;15572;48.810;9.148;2022-10-13T19:21:18;29.50;;;16.73;;
28311;SDS011;15572;48.810;9.148;2022-10-13T19:26:17;30.57;;;22.00;;
28311;SDS011;15572;48.810;9.148;2022-10-13T19:31:17;28.17;;;18.67;;
28311;SDS011;15572;48.810;9.148;2022-10-13T19:36:19;26.43;;;17.00;;
28311;SDS011;15572;48.810;9.148;2022-10-13T19:41:18;26.33;;;18.20;;
28311;SDS011;15572;48.810;9.148;2022-10-13T19:46:14;27.90;;;16.87;;
28311;SDS011;15572;48.810;9.148;2022-10-13T19:51:13;24.07;;;14.67;;
28311;SDS011;15572;48.810;9.148;2022-10-13T19:56:17;23.33;;;14.40;;
28311;SDS011;15572;48.810;9.148;2022-10-13T20:01:14;21.70;;;14.50;;
28311;SDS011;15572;48.810;9.148;2022-10-13T20:06:14;26.00;;;13.93;;
28311;SDS011;15572;48.810;9.148;2022-10-13T20:11:12;22.77;;;13.37;;
28311;SDS011;15572;48.810;9.148;2022-10-13T20:16:11;26.97;;;13.53;;
28311;SDS011;15572;48.810;9.148;2022-10-13T20:21:10;22.70;;;15.00;;
28311;SDS011;15572;48.810;9.148;2022-10-13T20:26:09;20.60;;;14.33;;
28311;SDS011;15572;48.810;9.148;2022-10-13T20:31:07;24.30;;;15.27;;
28311;SDS011;15572;48.810;9.148;2022-10-13T20:36:05;22.57;;;15.27;;
28311;SDS011;15572;48.810;9.148;2022-10-13T20:41:03;24.53;;;15.70;;
28311;SDS011;15572;48.810;9.148;2022-10-13T20:46:04;21.10;;;15.20;;
28311;SDS011;15572;48.810;9.148;2022-10-13T20:51:02;25.53;;;15.30;;
28311;SDS011;15572;48.810;9.148;2022-10-13T20:56:00;29.60;;;14.87;;
28311;SDS011;15572;48.810;9.148;2022-10-13T21:00:59;23.17;;;16.93;;
28311;SDS011;15572;48.810;9.148;2022-10-13T21:05:59;20.67;;;14.40;;
28311;SDS011;15572;48.810;9.148;2022-10-13T21:11:00;22.03;;;14.80;;
28311;SDS011;15572;48.810;9.148;2022-10-13T21:16:03;23.93;;;14.53;;
28311;SDS011;15572;48.810;9.148;2022-10-13T21:21:03;26.77;;;16.10;;
28311;SDS011;15572;48.810;9.148;2022-10-13T21:26:00;23.53;;;16.27;;
28311;SDS011;15572;48.810;9.148;2022-10-13T21:30:58;25.03;;;16.67;;
28311;SDS011;15572;48.810;9.148;2022-10-13T21:35:55;22.90;;;15.23;;
28311;SDS011;15572;48.810;9.148;2022-10-13T21:40:54;21.83;;;13.80;;
28311;SDS011;15572;48.810;9.148;2022-10-13T21:45:50;24.47;;;15.13;;
28311;SDS011;15572;48.810;9.148;2022-10-13T21:50:47;24.27;;;14.67;;
28311;SDS011;15572;48.810;9.148;2022-10-13T21:55:44;22.40;;;13.23;;
28311;SDS011;15572;48.810;9.148;2022-10-13T22:00:41;18.13;;;11.53;;
28311;SDS011;15572;48.810;9.148;2022-10-13T22:05:38;19.07;;;12.10;;
28311;SDS011;15572;48.810;9.148;2022-10-13T22:10:34;19.53;;;10.87;;
28311;SDS011;15572;48.810;9.148;2022-10-13T22:15:32;18.83;;;11.07;;
28311;SDS011;15572;48.810;9.148;2022-10-13T22:20:33;16.60;;;11.00;;
28311;SDS011;15572;48.810;9.148;2022-10-13T22:25:30;16.93;;;12.10;;
28311;SDS011;15572;48.810;9.148;2022-10-13T22:30:27;23.70;;;12.53;;
28311;SDS011;15572;48.810;9.148;2022-10-13T22:35:23;19.00;;;12.20;;
28311;SDS011;15572;48.810;9.148;2022-10-13T22:40:21;19.83;;;12.53;;
28311;SDS011;15572;48.810;9.148;2022-10-13T22:45:18;17.30;;;12.20;;
28311;SDS011;15572;48.810;9.148;2022-10-13T22:50:14;21.20;;;12.50;;
28311;SDS011;15572;48.810;9.148;2022-10-13T22:55:12;18.30;;;11.73;;
28311;SDS011;15572;48.810;9.148;2022-10-13T23:00:10;18.70;;;11.07;;
28311;SDS011;15572;48.810;9.148;2022-10-13T23:05:08;13.70;;;9.03;;
28311;SDS011;15572;48.810;9.148;2022-10-13T23:10:04;14.03;;;8.03;;
28311;SDS011;15572;48.810;9.148;2022-10-13T23:15:02;19.20;;;8.37;;
28311;SDS011;15572;48.810;9.148;2022-10-13T23:20:00;13.73;;;8.17;;
28311;SDS011;15572;48.810;9.148;2022-10-13T23:24:57;18.47;;;8.13;;
28311;SDS011;15572;48.810;9.148;2022-10-13T23:29:53;12.90;;;8.13;;
28311;SDS011;15572;48.810;9.148;2022-10-13T23:34:50;12.70;;;7.70;;
28311;SDS011;15572;48.810;9.148;2022-10-13T23:39:47;9.63;;;7.10;;
28311;SDS011;15572;48.810;9.148;2022-10-13T23:44:44;12.83;;;6.90;;
28311;SDS011;15572;48.810;9.148;2022-10-13T23:49:41;16.23;;;8.03;;
28311;SDS011;15572;48.810;9.148;2022-10-13T23:54:37;9.60;;;7.07;;
28311;SDS011;15572;48.810;9.148;2022-10-13T23:59:35;10.67;;;8.00;;
